Time;durP1;ratioP1;P1;durP2;ratioP2;P2;SDS_P1;SDS_P2;PMS_P1;PMS_P2;Temp;Humidity;BMP_temperature;BMP_pressure;BME280_temperature;BME280_humidity;BME280_pressure;Samples;Min_cycle;Max_cycle;Signal;HPM_P1;HPM_P2
2021/05/25 00:01:01;;;;;;;1.70;1.10;;;;;;;;;;5056809;28;20436;-78
2021/05/25 00:03:26;;;;;;;2.95;0.98;;;;;;;;;;5067629;28;20017;-78
2021/05/25 00:05:51;;;;;;;1.65;0.90;;;;;;;;;;5053758;28;20021;-79
2021/05/25 00:08:16;;;;;;;1.42;0.80;;;;;;;;;;5030468;28;20529;-79
2021/05/25 00:10:42;;;;;;;1.67;0.90;;;;;;;;;;5056253;28;20029;-78
2021/05/25 00:13:07;;;;;;;3.13;0.93;;;;;;;;;;5055481;28;20021;-78
2021/05/25 00:15:33;;;;;;;1.75;1.13;;;;;;;;;;5048907;28;20027;-80
2021/05/25 00:17:59;;;;;;;2.38;1.02;;;;;;;;;;5056276;28;20333;-78
2021/05/25 00:20:25;;;;;;;2.00;1.00;;;;;;;;;;5036560;28;20507;-78
2021/05/25 00:22:50;;;;;;;2.65;0.90;;;;;;;;;;5049713;28;20027;-77
2021/05/25 00:25:16;;;;;;;3.35;1.10;;;;;;;;;;5052796;28;20025;-79
2021/05/25 00:27:42;;;;;;;1.60;1.00;;;;;;;;;;5049045;28;20029;-78
2021/05/25 00:30:08;;;;;;;1.38;1.00;;;;;;;;;;5047599;28;20044;-78
2021/05/25 00:32:34;;;;;;;1.77;1.00;;;;;;;;;;5051714;28;20483;-79
2021/05/25 00:34:59;;;;;;;2.58;0.88;;;;;;;;;;5048916;28;20020;-78
2021/05/25 00:37:24;;;;;;;1.60;0.88;;;;;;;;;;5060761;28;20040;-80
2021/05/25 00:39:49;;;;;;;1.77;0.75;;;;;;;;;;5058536;28;20036;-77
2021/05/25 00:42:14;;;;;;;1.13;0.60;;;;;;;;;;5048917;28;20100;-79
2021/05/25 00:44:39;;;;;;;0.90;0.73;;;;;;;;;;5057759;28;20031;-79
2021/05/25 00:47:05;;;;;;;3.35;0.80;;;;;;;;;;5053989;28;20052;-78
2021/05/25 00:49:30;;;;;;;1.40;0.90;;;;;;;;;;5048594;28;20378;-78
2021/05/25 00:51:55;;;;;;;1.20;0.70;;;;;;;;;;5047827;28;20037;-78
2021/05/25 00:54:20;;;;;;;2.45;1.00;;;;;;;;;;5048839;28;20020;-78
2021/05/25 00:56:46;;;;;;;3.22;0.77;;;;;;;;;;5058204;28;20048;-78
2021/05/25 00:59:11;;;;;;;1.05;0.80;;;;;;;;;;5055629;28;20026;-77
2021/05/25 01:01:36;;;;;;;2.33;1.00;;;;;;;;;;5047736;28;20045;-79
2021/05/25 01:04:02;;;;;;;3.97;0.80;;;;;;;;;;5050778;28;20052;-78
2021/05/25 01:06:27;;;;;;;2.72;0.88;;;;;;;;;;5049516;28;20506;-78
2021/05/25 01:08:52;;;;;;;0.88;0.70;;;;;;;;;;5049260;28;20157;-78
2021/05/25 01:11:19;;;;;;;1.33;0.60;;;;;;;;;;5046901;28;20021;-78
2021/05/25 01:13:54;;;;;;;1.27;0.80;;;;;;;;;;5050396;28;20017;-77
2021/05/25 01:16:22;;;;;;;1.40;0.80;;;;;;;;;;5050078;28;20021;-78
2021/05/25 01:18:48;;;;;;;1.50;0.80;;;;;;;;;;5066270;28;20117;-78
2021/05/25 01:21:13;;;;;;;1.15;0.65;;;;;;;;;;5063615;28;20074;-78
2021/05/25 01:23:39;;;;;;;1.52;0.60;;;;;;;;;;5056836;28;20017;-77
2021/05/25 01:26:04;;;;;;;5.05;0.77;;;;;;;;;;5049497;28;20467;-78
2021/05/25 01:28:29;;;;;;;1.65;0.70;;;;;;;;;;5052333;28;20029;-78
2021/05/25 01:30:56;;;;;;;1.42;0.75;;;;;;;;;;5064831;28;20025;-78
2021/05/25 01:33:22;;;;;;;1.38;0.80;;;;;;;;;;5063446;28;20060;-77
2021/05/25 01:35:47;;;;;;;1.95;0.77;;;;;;;;;;5064969;28;20674;-78
2021/05/25 01:38:13;;;;;;;2.53;0.80;;;;;;;;;;5062363;28;20127;-78
2021/05/25 01:40:39;;;;;;;0.95;0.73;;;;;;;;;;5054624;28;20025;-79
2021/05/25 01:43:04;;;;;;;5.15;1.02;;;;;;;;;;5051058;28;20075;-79
2021/05/25 01:45:31;;;;;;;2.47;0.70;;;;;;;;;;5065705;28;20456;-77
2021/05/25 01:47:57;;;;;;;1.35;0.88;;;;;;;;;;5061873;28;20035;-78
2021/05/25 01:50:24;;;;;;;2.45;0.85;;;;;;;;;;5056772;28;20437;-79
2021/05/25 01:52:51;;;;;;;1.30;0.70;;;;;;;;;;5061707;28;20399;-79
2021/05/25 01:55:24;;;;;;;1.08;0.60;;;;;;;;;;5051605;28;20028;-78
2021/05/25 01:57:49;;;;;;;2.63;0.80;;;;;;;;;;5053345;28;20048;-78
2021/05/25 02:00:14;;;;;;;2.05;0.70;;;;;;;;;;5053813;28;20021;-78
2021/05/25 02:02:40;;;;;;;1.88;0.70;;;;;;;;;;5053797;28;20031;-78
2021/05/25 02:05:06;;;;;;;4.45;1.23;;;;;;;;;;5061678;28;20017;-78
2021/05/25 02:07:31;;;;;;;2.67;0.75;;;;;;;;;;5054788;28;20105;-78
2021/05/25 02:09:56;;;;;;;1.73;0.68;;;;;;;;;;5059286;28;20118;-78
2021/05/25 02:12:21;;;;;;;2.60;1.00;;;;;;;;;;5053082;28;20021;-76
2021/05/25 02:14:46;;;;;;;1.38;0.70;;;;;;;;;;5056175;28;20029;-79
2021/05/25 02:17:12;;;;;;;1.75;0.80;;;;;;;;;;5058143;28;20021;-77
2021/05/25 02:19:37;;;;;;;3.00;0.90;;;;;;;;;;5052932;28;20079;-78
2021/05/25 02:22:02;;;;;;;2.05;0.95;;;;;;;;;;5058628;28;20044;-78
2021/05/25 02:24:28;;;;;;;3.45;0.80;;;;;;;;;;5058956;28;20340;-77
2021/05/25 02:26:53;;;;;;;1.30;0.70;;;;;;;;;;5059243;28;20033;-78
2021/05/25 02:29:18;;;;;;;2.65;0.80;;;;;;;;;;5059146;28;20032;-78
2021/05/25 02:31:43;;;;;;;4.05;1.00;;;;;;;;;;5058522;28;20070;-78
2021/05/25 02:34:09;;;;;;;1.95;1.02;;;;;;;;;;5060436;28;20044;-78
2021/05/25 02:36:34;;;;;;;2.65;0.80;;;;;;;;;;5043014;28;20132;-78
2021/05/25 02:38:59;;;;;;;5.50;0.85;;;;;;;;;;5042998;28;20075;-78
2021/05/25 02:41:24;;;;;;;1.48;0.90;;;;;;;;;;5054953;28;20179;-78
2021/05/25 02:43:50;;;;;;;3.63;0.80;;;;;;;;;;5051210;28;20392;-78
2021/05/25 02:46:16;;;;;;;2.80;0.80;;;;;;;;;;5052936;28;20021;-77
2021/05/25 02:48:41;;;;;;;5.20;0.77;;;;;;;;;;5053534;28;20024;-77
2021/05/25 02:51:06;;;;;;;3.05;0.80;;;;;;;;;;5048860;28;20389;-78
2021/05/25 02:53:31;;;;;;;2.15;0.90;;;;;;;;;;5057498;28;20057;-79
2021/05/25 02:55:56;;;;;;;2.88;0.82;;;;;;;;;;5050672;28;20025;-77
2021/05/25 02:58:21;;;;;;;2.95;0.90;;;;;;;;;;5034532;28;20477;-76
2021/05/25 03:00:47;;;;;;;3.33;1.27;;;;;;;;;;5050822;28;20032;-78
2021/05/25 03:03:13;;;;;;;5.80;0.85;;;;;;;;;;5055708;28;20017;-78
2021/05/25 03:05:38;;;;;;;2.35;0.98;;;;;;;;;;5057147;28;20028;-78
2021/05/25 03:08:04;;;;;;;3.55;1.40;;;;;;;;;;5050031;28;20020;-78
2021/05/25 03:10:31;;;;;;;2.33;0.90;;;;;;;;;;5056585;28;20039;-78
2021/05/25 03:12:57;;;;;;;1.75;0.90;;;;;;;;;;5054242;28;20021;-75
2021/05/25 03:15:32;;;;;;;4.18;1.00;;;;;;;;;;5062320;28;20017;-78
2021/05/25 03:17:58;;;;;;;4.32;1.00;;;;;;;;;;5060986;28;20032;-78
2021/05/25 03:20:23;;;;;;;6.63;0.90;;;;;;;;;;5051850;28;20445;-78
2021/05/25 03:22:49;;;;;;;3.13;0.90;;;;;;;;;;5054224;28;20028;-78
2021/05/25 03:25:15;;;;;;;5.10;0.82;;;;;;;;;;5052806;28;20053;-78
2021/05/25 03:27:40;;;;;;;4.38;1.15;;;;;;;;;;5050879;28;20074;-78
2021/05/25 03:30:08;;;;;;;4.88;1.20;;;;;;;;;;5056550;28;20481;-77
2021/05/25 03:32:33;;;;;;;3.60;0.88;;;;;;;;;;5050083;28;20151;-78
2021/05/25 03:34:58;;;;;;;5.03;1.20;;;;;;;;;;5051134;28;20088;-78
2021/05/25 03:37:24;;;;;;;1.40;0.85;;;;;;;;;;5050784;28;20036;-78
2021/05/25 03:39:49;;;;;;;4.72;1.23;;;;;;;;;;5056088;28;20037;-77
2021/05/25 03:42:14;;;;;;;2.50;0.85;;;;;;;;;;5058412;28;20043;-78
2021/05/25 03:44:39;;;;;;;5.80;1.25;;;;;;;;;;5057444;28;20090;-77
2021/05/25 03:47:05;;;;;;;3.80;1.20;;;;;;;;;;5063837;28;20056;-77
2021/05/25 03:49:30;;;;;;;5.10;1.48;;;;;;;;;;5056010;28;20060;-77
2021/05/25 03:51:55;;;;;;;5.60;0.93;;;;;;;;;;5048579;28;20227;-78
2021/05/25 03:54:40;;;;;;;3.72;0.88;;;;;;;;;;5046494;28;20049;-78
2021/05/25 03:57:14;;;;;;;3.33;1.10;;;;;;;;;;5047918;28;20082;-78
2021/05/25 03:59:39;;;;;;;2.63;1.05;;;;;;;;;;5047411;28;20070;-78
2021/05/25 04:02:04;;;;;;;3.22;0.90;;;;;;;;;;5051239;28;20044;-77
2021/05/25 04:04:30;;;;;;;4.10;1.35;;;;;;;;;;5053792;28;20454;-77
2021/05/25 04:06:55;;;;;;;7.80;1.52;;;;;;;;;;5049847;28;20036;-78
2021/05/25 04:09:20;;;;;;;5.30;1.30;;;;;;;;;;5046183;28;20025;-78
2021/05/25 04:11:46;;;;;;;4.18;0.90;;;;;;;;;;5048590;28;20035;-77
2021/05/25 04:14:11;;;;;;;2.40;1.10;;;;;;;;;;5049287;28;20103;-77
2021/05/25 04:16:36;;;;;;;3.70;1.02;;;;;;;;;;5050126;28;20042;-78
2021/05/25 04:19:01;;;;;;;3.97;1.15;;;;;;;;;;5055834;28;20060;-78
2021/05/25 04:21:27;;;;;;;4.05;1.23;;;;;;;;;;5033620;28;20048;-78
2021/05/25 04:23:53;;;;;;;4.13;1.20;;;;;;;;;;5049124;28;20036;-77
2021/05/25 04:26:18;;;;;;;4.18;1.20;;;;;;;;;;5049804;28;20025;-79
2021/05/25 04:28:43;;;;;;;5.47;1.10;;;;;;;;;;5059290;28;20024;-78
2021/05/25 04:31:08;;;;;;;4.60;0.93;;;;;;;;;;5065322;28;20017;-79
2021/05/25 04:33:33;;;;;;;3.92;1.10;;;;;;;;;;5055764;28;20037;-78
2021/05/25 04:35:59;;;;;;;3.58;1.00;;;;;;;;;;5048673;28;20040;-78
2021/05/25 04:38:24;;;;;;;3.22;0.90;;;;;;;;;;5058240;28;20131;-78
2021/05/25 04:40:49;;;;;;;2.00;1.10;;;;;;;;;;5048445;28;20531;-78
2021/05/25 04:43:14;;;;;;;3.50;0.98;;;;;;;;;;5051820;28;20101;-76
2021/05/25 04:45:41;;;;;;;3.60;1.05;;;;;;;;;;5056778;28;20494;-78
2021/05/25 04:48:07;;;;;;;3.75;1.00;;;;;;;;;;5044554;28;20017;-77
2021/05/25 04:50:32;;;;;;;1.63;0.80;;;;;;;;;;5053847;28;20021;-78
2021/05/25 04:52:58;;;;;;;1.77;0.70;;;;;;;;;;5057757;28;20570;-78
2021/05/25 04:55:23;;;;;;;3.30;0.95;;;;;;;;;;5047785;28;20037;-78
2021/05/25 04:57:49;;;;;;;2.47;0.60;;;;;;;;;;5049882;28;20175;-79
2021/05/25 05:00:16;;;;;;;3.88;1.20;;;;;;;;;;5060344;28;20016;-79
2021/05/25 05:02:41;;;;;;;3.97;0.93;;;;;;;;;;5041550;28;20029;-77
2021/05/25 05:05:07;;;;;;;3.45;1.10;;;;;;;;;;5056220;28;20027;-79
2021/05/25 05:07:32;;;;;;;1.98;0.75;;;;;;;;;;5051621;28;20017;-78
2021/05/25 05:09:58;;;;;;;2.78;1.02;;;;;;;;;;5054568;28;20031;-79
2021/05/25 05:12:23;;;;;;;3.45;0.93;;;;;;;;;;5024022;28;20025;-78
2021/05/25 05:14:48;;;;;;;1.85;0.90;;;;;;;;;;5053047;28;20021;-79
2021/05/25 05:17:13;;;;;;;2.95;0.80;;;;;;;;;;5046895;28;20112;-77
2021/05/25 05:19:39;;;;;;;4.65;0.60;;;;;;;;;;5048380;28;20025;-77
2021/05/25 05:22:04;;;;;;;4.53;1.50;;;;;;;;;;5047706;28;20159;-77
2021/05/25 05:24:29;;;;;;;3.00;0.75;;;;;;;;;;5034878;28;20083;-77
2021/05/25 05:26:54;;;;;;;3.08;1.13;;;;;;;;;;5058220;28;20032;-78
2021/05/25 05:29:20;;;;;;;2.92;0.80;;;;;;;;;;5056217;28;20029;-79
2021/05/25 05:31:45;;;;;;;3.10;0.73;;;;;;;;;;5055497;28;20115;-78
2021/05/25 05:34:11;;;;;;;4.65;1.10;;;;;;;;;;5046196;28;20727;-78
2021/05/25 05:36:36;;;;;;;5.82;1.02;;;;;;;;;;5051628;28;20037;-77
2021/05/25 05:39:03;;;;;;;3.33;0.80;;;;;;;;;;5040936;28;20742;-78
2021/05/25 05:41:28;;;;;;;6.30;1.75;;;;;;;;;;5047745;28;20045;-78
2021/05/25 05:43:53;;;;;;;2.15;0.80;;;;;;;;;;5055754;28;20028;-79
2021/05/25 05:46:18;;;;;;;5.40;0.95;;;;;;;;;;5073376;28;20025;-78
2021/05/25 05:48:43;;;;;;;5.40;0.80;;;;;;;;;;5057939;28;20419;-79
2021/05/25 05:51:09;;;;;;;4.85;0.93;;;;;;;;;;5049001;28;20125;-77
2021/05/25 05:53:34;;;;;;;6.35;1.10;;;;;;;;;;5048849;28;20024;-79
2021/05/25 05:55:59;;;;;;;5.63;1.00;;;;;;;;;;5064456;28;20032;-78
2021/05/25 05:58:25;;;;;;;4.00;0.98;;;;;;;;;;5048942;28;20025;-79
2021/05/25 06:00:50;;;;;;;3.03;0.65;;;;;;;;;;5024482;28;20377;-77
2021/05/25 06:03:15;;;;;;;4.25;0.90;;;;;;;;;;5029587;28;20124;-78
2021/05/25 06:05:40;;;;;;;13.93;1.27;;;;;;;;;;5039680;28;20099;-80
2021/05/25 06:08:06;;;;;;;6.45;1.10;;;;;;;;;;5039117;28;20138;-77
2021/05/25 06:10:33;;;;;;;3.38;0.98;;;;;;;;;;5040336;28;20036;-80
2021/05/25 06:12:58;;;;;;;2.67;0.85;;;;;;;;;;5031122;28;20341;-79
2021/05/25 06:15:24;;;;;;;2.92;0.82;;;;;;;;;;5047757;28;20032;-78
2021/05/25 06:17:50;;;;;;;3.30;0.90;;;;;;;;;;5044764;28;20071;-77
2021/05/25 06:20:15;;;;;;;2.97;1.10;;;;;;;;;;5043279;28;20034;-78
2021/05/25 06:22:40;;;;;;;6.63;1.10;;;;;;;;;;5048843;28;20028;-70
2021/05/25 06:25:06;;;;;;;2.75;1.30;;;;;;;;;;5044927;28;20017;-71
2021/05/25 06:27:32;;;;;;;4.40;1.05;;;;;;;;;;5045369;28;20024;-72
2021/05/25 06:29:57;;;;;;;2.72;0.80;;;;;;;;;;5033389;28;20087;-72
2021/05/25 06:32:22;;;;;;;3.97;1.00;;;;;;;;;;5039623;28;20022;-71
2021/05/25 06:34:48;;;;;;;4.22;0.90;;;;;;;;;;5034475;28;20480;-72
2021/05/25 06:37:13;;;;;;;4.03;1.10;;;;;;;;;;5043830;28;20100;-71
2021/05/25 06:39:38;;;;;;;5.18;1.15;;;;;;;;;;5049581;28;20036;-72
2021/05/25 06:42:04;;;;;;;5.57;1.58;;;;;;;;;;5044124;28;20108;-73
2021/05/25 06:44:32;;;;;;;6.90;1.20;;;;;;;;;;5050008;28;20029;-71
2021/05/25 06:46:58;;;;;;;4.70;1.10;;;;;;;;;;5058229;28;20479;-71
2021/05/25 06:49:23;;;;;;;2.40;0.70;;;;;;;;;;5054527;28;20025;-71
2021/05/25 06:51:49;;;;;;;6.40;1.10;;;;;;;;;;5053734;28;20098;-72
2021/05/25 06:54:14;;;;;;;3.67;0.90;;;;;;;;;;5056121;28;20021;-73
2021/05/25 06:56:39;;;;;;;4.13;1.05;;;;;;;;;;5059373;28;20491;-71
2021/05/25 06:59:04;;;;;;;4.85;0.70;;;;;;;;;;5052318;28;20074;-70
2021/05/25 07:01:29;;;;;;;3.90;1.20;;;;;;;;;;5060839;28;20475;-72
2021/05/25 07:03:54;;;;;;;6.55;0.88;;;;;;;;;;5056437;28;20024;-72
2021/05/25 07:06:20;;;;;;;2.78;0.80;;;;;;;;;;5051946;28;20091;-73
2021/05/25 07:08:46;;;;;;;2.40;0.80;;;;;;;;;;5063783;28;20046;-72
2021/05/25 07:11:11;;;;;;;4.60;1.05;;;;;;;;;;5055555;28;20468;-72
2021/05/25 07:13:36;;;;;;;2.22;0.60;;;;;;;;;;5052613;28;20082;-72
2021/05/25 07:16:01;;;;;;;4.55;1.02;;;;;;;;;;5060141;28;20028;-73
2021/05/25 07:18:26;;;;;;;3.28;0.80;;;;;;;;;;5033000;28;20095;-72
2021/05/25 07:20:52;;;;;;;3.90;0.75;;;;;;;;;;5057690;28;20089;-72
2021/05/25 07:23:17;;;;;;;4.13;0.90;;;;;;;;;;5054852;28;20025;-72
2021/05/25 07:25:42;;;;;;;4.75;0.90;;;;;;;;;;5054333;28;20480;-70
2021/05/25 07:28:07;;;;;;;5.25;0.93;;;;;;;;;;5051149;28;20092;-70
2021/05/25 07:30:32;;;;;;;4.07;1.20;;;;;;;;;;5061904;28;20021;-71
2021/05/25 07:32:58;;;;;;;2.25;0.75;;;;;;;;;;5048657;28;20077;-71
2021/05/25 07:35:23;;;;;;;2.08;0.80;;;;;;;;;;5050689;28;20100;-69
2021/05/25 07:37:48;;;;;;;2.28;0.75;;;;;;;;;;5061233;28;20464;-70
2021/05/25 07:40:17;;;;;;;4.60;0.73;;;;;;;;;;5052205;28;20024;-70
2021/05/25 07:42:43;;;;;;;4.45;1.00;;;;;;;;;;5061146;28;20017;-70
2021/05/25 07:45:08;;;;;;;4.88;0.68;;;;;;;;;;5057009;28;20020;-71
2021/05/25 07:47:34;;;;;;;3.00;0.80;;;;;;;;;;5059022;28;20112;-69
2021/05/25 07:50:12;;;;;;;5.10;0.90;;;;;;;;;;5059863;28;20024;-70
2021/05/25 07:52:38;;;;;;;2.55;0.82;;;;;;;;;;5061349;28;20048;-70
2021/05/25 07:55:04;;;;;;;5.82;1.05;;;;;;;;;;5058604;28;20016;-69
2021/05/25 07:57:29;;;;;;;3.70;0.60;;;;;;;;;;5057792;28;20035;-71
2021/05/25 07:59:54;;;;;;;3.63;1.00;;;;;;;;;;5053945;28;20025;-71
2021/05/25 08:02:19;;;;;;;3.33;1.00;;;;;;;;;;5050577;28;20119;-70
2021/05/25 08:04:44;;;;;;;2.53;0.75;;;;;;;;;;5051394;28;20468;-70
2021/05/25 08:07:09;;;;;;;4.72;0.65;;;;;;;;;;5049670;28;20155;-70
2021/05/25 08:09:34;;;;;;;4.72;0.80;;;;;;;;;;5050234;28;20055;-70
2021/05/25 08:12:00;;;;;;;4.53;0.95;;;;;;;;;;5046286;28;20135;-70
2021/05/25 08:14:25;;;;;;;3.45;0.70;;;;;;;;;;5048815;28;20075;-71
2021/05/25 08:16:50;;;;;;;2.60;0.88;;;;;;;;;;5053925;28;20037;-71
2021/05/25 08:19:30;;;;;;;3.08;0.93;;;;;;;;;;5057578;28;20045;-70
2021/05/25 08:21:55;;;;;;;4.60;0.88;;;;;;;;;;5061551;28;20393;-70
2021/05/25 08:24:20;;;;;;;3.30;0.82;;;;;;;;;;5035586;28;20027;-71
2021/05/25 08:26:45;;;;;;;3.60;0.80;;;;;;;;;;5051527;28;20066;-70
2021/05/25 08:29:10;;;;;;;2.97;0.80;;;;;;;;;;5054281;28;20033;-71
2021/05/25 08:31:35;;;;;;;4.28;0.63;;;;;;;;;;5050936;28;20111;-70
2021/05/25 08:34:02;;;;;;;4.20;0.90;;;;;;;;;;5053864;28;20080;-71
2021/05/25 08:36:29;;;;;;;2.80;1.15;;;;;;;;;;5062647;28;20021;-70
2021/05/25 08:38:54;;;;;;;2.55;0.80;;;;;;;;;;5060483;28;20103;-70
2021/05/25 08:41:20;;;;;;;2.00;0.68;;;;;;;;;;5049271;28;20464;-71
2021/05/25 08:43:46;;;;;;;3.70;0.70;;;;;;;;;;5050182;28;20013;-70
2021/05/25 08:46:11;;;;;;;5.10;0.95;;;;;;;;;;5065664;28;20028;-69
2021/05/25 08:48:38;;;;;;;2.38;0.70;;;;;;;;;;5058866;28;20819;-69
2021/05/25 08:51:03;;;;;;;7.28;0.98;;;;;;;;;;5055694;28;20349;-69
2021/05/25 08:53:28;;;;;;;5.13;1.00;;;;;;;;;;5055465;28;20033;-70
2021/05/25 08:55:54;;;;;;;2.85;0.80;;;;;;;;;;5050573;28;20031;-69
2021/05/25 08:58:20;;;;;;;2.00;0.63;;;;;;;;;;5054988;28;20021;-70
2021/05/25 09:00:46;;;;;;;3.25;0.68;;;;;;;;;;5056507;28;20051;-69
2021/05/25 09:03:14;;;;;;;3.55;0.88;;;;;;;;;;5050113;28;20067;-69
2021/05/25 09:05:46;;;;;;;4.55;0.77;;;;;;;;;;5053026;28;20118;-69
2021/05/25 09:08:11;;;;;;;1.85;0.57;;;;;;;;;;5044867;28;20063;-71
2021/05/25 09:10:38;;;;;;;3.83;0.73;;;;;;;;;;5035450;28;20064;-71
2021/05/25 09:13:10;;;;;;;2.47;0.70;;;;;;;;;;5054527;28;20107;-70
2021/05/25 09:15:42;;;;;;;4.40;0.70;;;;;;;;;;5063923;28;20028;-70
2021/05/25 09:18:08;;;;;;;4.10;0.90;;;;;;;;;;5057157;28;20044;-70
2021/05/25 09:20:53;;;;;;;3.40;0.60;;;;;;;;;;5048282;28;20113;-69
2021/05/25 09:23:23;;;;;;;2.05;0.50;;;;;;;;;;5056631;28;20032;-69
2021/05/25 09:25:52;;;;;;;8.60;0.80;;;;;;;;;;5055059;28;20013;-69
2021/05/25 09:28:18;;;;;;;2.80;0.60;;;;;;;;;;5055516;28;20025;-69
2021/05/25 09:30:45;;;;;;;2.72;0.73;;;;;;;;;;5039524;28;20359;-69
2021/05/25 09:33:11;;;;;;;4.45;0.90;;;;;;;;;;5047719;28;20072;-69
2021/05/25 09:35:40;;;;;;;2.58;0.85;;;;;;;;;;5057228;28;20028;-68
2021/05/25 09:38:08;;;;;;;2.30;0.73;;;;;;;;;;5048451;28;20020;-69
2021/05/25 09:40:33;;;;;;;4.57;0.70;;;;;;;;;;5046388;28;20091;-69
2021/05/25 09:43:17;;;;;;;5.25;0.95;;;;;;;;;;5046710;28;20020;-69
2021/05/25 09:46:00;;;;;;;1.38;0.60;;;;;;;;;;5055431;28;20039;-68
2021/05/25 09:48:27;;;;;;;3.92;0.75;;;;;;;;;;5054480;28;20134;-69
2021/05/25 09:50:54;;;;;;;1.65;0.77;;;;;;;;;;5061504;28;20591;-69
2021/05/25 09:53:21;;;;;;;3.45;0.98;;;;;;;;;;5046697;28;20684;-70
2021/05/25 09:55:53;;;;;;;2.33;0.60;;;;;;;;;;5058070;28;20104;-70
2021/05/25 09:58:21;;;;;;;1.83;0.60;;;;;;;;;;5049093;28;20025;-69
2021/05/25 10:00:46;;;;;;;3.63;0.60;;;;;;;;;;5063083;28;20034;-69
2021/05/25 10:03:14;;;;;;;1.60;0.60;;;;;;;;;;5051371;28;20369;-69
2021/05/25 10:05:40;;;;;;;3.28;0.80;;;;;;;;;;5051188;28;20029;-69
2021/05/25 10:08:05;;;;;;;3.70;0.60;;;;;;;;;;5057629;28;20020;-70
2021/05/25 10:10:31;;;;;;;1.33;0.50;;;;;;;;;;5065368;28;20033;-71
2021/05/25 10:12:57;;;;;;;2.42;0.60;;;;;;;;;;5057763;28;20107;-69
2021/05/25 10:15:26;;;;;;;2.20;0.75;;;;;;;;;;5052710;28;20107;-68
2021/05/25 10:20:27;;;;;;;2.28;0.52;;;;;;;;;;5051003;28;20063;-70
2021/05/25 10:22:52;;;;;;;3.08;0.70;;;;;;;;;;5050736;28;20083;-69
2021/05/25 10:25:18;;;;;;;1.23;0.30;;;;;;;;;;5052485;28;20025;-70
2021/05/25 10:27:45;;;;;;;2.40;0.75;;;;;;;;;;5055795;28;20051;-68
2021/05/25 10:30:22;;;;;;;1.38;0.60;;;;;;;;;;5052215;28;20020;-70
2021/05/25 10:32:48;;;;;;;1.33;0.50;;;;;;;;;;5062662;28;20052;-70
2021/05/25 10:35:20;;;;;;;3.28;0.43;;;;;;;;;;5050723;28;20384;-71
2021/05/25 10:38:04;;;;;;;4.47;1.00;;;;;;;;;;5058362;28;20032;-70
2021/05/25 10:40:38;;;;;;;4.60;1.00;;;;;;;;;;5060621;28;20021;-70
2021/05/25 10:43:22;;;;;;;3.45;0.65;;;;;;;;;;5063575;28;20024;-71
2021/05/25 10:45:47;;;;;;;4.65;0.73;;;;;;;;;;5049260;28;20021;-70
2021/05/25 10:48:14;;;;;;;1.55;0.60;;;;;;;;;;5049738;28;20055;-69
2021/05/25 10:50:48;;;;;;;2.33;0.73;;;;;;;;;;5056094;28;20115;-69
2021/05/25 10:53:22;;;;;;;3.08;0.85;;;;;;;;;;5031948;28;20564;-70
2021/05/25 10:55:48;;;;;;;3.08;0.70;;;;;;;;;;5062019;28;20636;-70
2021/05/25 10:58:16;;;;;;;2.60;0.63;;;;;;;;;;5055276;28;20025;-70
2021/05/25 11:00:41;;;;;;;6.55;0.80;;;;;;;;;;5053570;28;20095;-69
2021/05/25 11:03:12;;;;;;;5.07;0.80;;;;;;;;;;5055586;28;20033;-70
2021/05/25 11:05:43;;;;;;;2.90;0.80;;;;;;;;;;5058960;28;20527;-69
2021/05/25 11:08:09;;;;;;;3.13;0.80;;;;;;;;;;5053151;28;20036;-70
2021/05/25 11:10:44;;;;;;;2.53;1.00;;;;;;;;;;5060284;28;20036;-70
2021/05/25 11:13:15;;;;;;;3.97;0.93;;;;;;;;;;5063435;28;20060;-71
2021/05/25 11:15:59;;;;;;;2.20;0.75;;;;;;;;;;5055459;28;20144;-71
2021/05/25 11:18:26;;;;;;;2.80;0.90;;;;;;;;;;5048771;28;20025;-70
2021/05/25 11:21:07;;;;;;;1.58;0.60;;;;;;;;;;5053242;28;20028;-71
2021/05/25 11:23:38;;;;;;;1.83;0.60;;;;;;;;;;5049943;28;20220;-71
2021/05/25 11:26:03;;;;;;;5.00;0.60;;;;;;;;;;5056094;28;20028;-72
2021/05/25 11:28:48;;;;;;;3.50;0.80;;;;;;;;;;5063792;28;20037;-71
2021/05/25 11:31:33;;;;;;;4.70;1.08;;;;;;;;;;5053591;28;20464;-70
2021/05/25 11:34:02;;;;;;;5.57;0.88;;;;;;;;;;5058097;28;20527;-72
2021/05/25 11:36:27;;;;;;;3.92;0.80;;;;;;;;;;5062516;28;20079;-71
2021/05/25 11:38:52;;;;;;;10.85;1.30;;;;;;;;;;5049983;28;20070;-72
2021/05/25 11:41:17;;;;;;;2.22;0.93;;;;;;;;;;5050134;28;20090;-72
2021/05/25 11:43:43;;;;;;;4.35;0.70;;;;;;;;;;5058688;28;20028;-70
2021/05/25 11:46:08;;;;;;;1.52;0.57;;;;;;;;;;5053976;28;20029;-71
2021/05/25 11:48:34;;;;;;;2.80;0.70;;;;;;;;;;5049602;28;20497;-70
2021/05/25 11:51:07;;;;;;;3.05;0.85;;;;;;;;;;5049698;28;20031;-70
2021/05/25 11:53:32;;;;;;;2.47;0.60;;;;;;;;;;5054185;28;20029;-70
2021/05/25 11:55:58;;;;;;;1.70;0.50;;;;;;;;;;5056648;28;20399;-71
2021/05/25 11:58:23;;;;;;;1.55;0.60;;;;;;;;;;5065436;28;20431;-70
2021/05/25 12:00:49;;;;;;;1.25;0.60;;;;;;;;;;5050103;28;20032;-70
2021/05/25 12:03:14;;;;;;;2.17;0.60;;;;;;;;;;5051002;28;20029;-71
2021/05/25 12:05:41;;;;;;;3.30;0.70;;;;;;;;;;5049927;28;20028;-71
2021/05/25 12:08:09;;;;;;;2.55;0.70;;;;;;;;;;5050060;28;20033;-70
2021/05/25 12:10:38;;;;;;;3.80;0.63;;;;;;;;;;5050026;28;20025;-71
2021/05/25 12:13:07;;;;;;;2.37;0.77;;;;;;;;;;5044540;28;20029;-71
2021/05/25 12:15:36;;;;;;;2.50;0.80;;;;;;;;;;5066516;28;20016;-70
2021/05/25 12:18:07;;;;;;;1.75;0.68;;;;;;;;;;5051377;28;20052;-70
2021/05/25 12:20:39;;;;;;;1.95;0.68;;;;;;;;;;5056114;28;20021;-71
2021/05/25 12:23:09;;;;;;;1.77;0.77;;;;;;;;;;5058507;28;20472;-70
2021/05/25 12:25:34;;;;;;;4.20;1.05;;;;;;;;;;5057138;28;20051;-70
2021/05/25 12:28:07;;;;;;;3.90;0.75;;;;;;;;;;5051003;28;20087;-70
2021/05/25 12:30:32;;;;;;;2.88;0.80;;;;;;;;;;5051327;28;20031;-70
2021/05/25 12:32:58;;;;;;;2.70;0.70;;;;;;;;;;5059441;28;20136;-70
2021/05/25 12:35:24;;;;;;;2.00;0.77;;;;;;;;;;5055291;28;20025;-70
2021/05/25 12:38:03;;;;;;;2.63;0.70;;;;;;;;;;5058131;28;20021;-70
2021/05/25 12:40:28;;;;;;;3.58;0.70;;;;;;;;;;5050046;28;20094;-70
2021/05/25 12:42:53;;;;;;;5.07;0.60;;;;;;;;;;5054531;28;20021;-70
2021/05/25 12:45:19;;;;;;;1.92;0.80;;;;;;;;;;5049032;28;20066;-71
2021/05/25 12:47:53;;;;;;;0.93;0.40;;;;;;;;;;5055519;28;20060;-71
2021/05/25 12:50:29;;;;;;;1.00;0.50;;;;;;;;;;5052993;28;20056;-70
2021/05/25 12:53:20;;;;;;;3.20;0.73;;;;;;;;;;5051673;28;20032;-69
2021/05/25 12:55:51;;;;;;;0.95;0.65;;;;;;;;;;4950223;28;20054;-71
2021/05/25 12:58:32;;;;;;;2.47;0.90;;;;;;;;;;4949408;28;20079;-70
2021/05/25 13:00:57;;;;;;;1.17;0.60;;;;;;;;;;4954118;28;20047;-70
2021/05/25 13:03:26;;;;;;;2.47;0.82;;;;;;;;;;4948537;28;20034;-70
2021/05/25 13:05:53;;;;;;;1.27;0.60;;;;;;;;;;4956308;28;20027;-71
2021/05/25 13:08:24;;;;;;;3.60;0.82;;;;;;;;;;4948708;28;20020;-70
2021/05/25 13:10:54;;;;;;;2.13;0.73;;;;;;;;;;4947875;28;20425;-71
2021/05/25 13:13:23;;;;;;;2.78;0.63;;;;;;;;;;4942650;29;20617;-72
2021/05/25 13:15:52;;;;;;;1.73;0.60;;;;;;;;;;4953146;28;20063;-70
2021/05/25 13:18:18;;;;;;;3.27;0.80;;;;;;;;;;4948089;29;20027;-71
2021/05/25 13:20:45;;;;;;;9.82;1.00;;;;;;;;;;4947473;28;20047;-70
2021/05/25 13:23:29;;;;;;;0.90;0.40;;;;;;;;;;4958970;28;20043;-71
2021/05/25 13:26:04;;;;;;;4.75;0.73;;;;;;;;;;4951914;28;20070;-69
2021/05/25 13:28:48;;;;;;;2.38;0.70;;;;;;;;;;4952122;29;20111;-71
2021/05/25 13:31:19;;;;;;;3.17;0.90;;;;;;;;;;4951997;28;20031;-71
2021/05/25 13:33:45;;;;;;;4.75;0.88;;;;;;;;;;5050808;28;20059;-71
2021/05/25 13:36:10;;;;;;;4.55;0.88;;;;;;;;;;5059092;28;20368;-69
2021/05/25 13:38:36;;;;;;;5.38;0.90;;;;;;;;;;5057355;28;20052;-71
2021/05/25 13:41:01;;;;;;;2.17;0.80;;;;;;;;;;5060178;28;20021;-71
2021/05/25 13:43:26;;;;;;;1.80;0.57;;;;;;;;;;5058988;28;20033;-71
2021/05/25 13:45:51;;;;;;;2.78;0.55;;;;;;;;;;5060155;28;20024;-71
2021/05/25 13:48:16;;;;;;;2.10;0.60;;;;;;;;;;5056493;28;20053;-70
2021/05/25 13:50:41;;;;;;;1.10;0.55;;;;;;;;;;5052807;28;20115;-70
2021/05/25 13:53:07;;;;;;;3.15;1.02;;;;;;;;;;5053478;28;20033;-70
2021/05/25 13:55:35;;;;;;;2.92;0.80;;;;;;;;;;5065420;28;20094;-71
2021/05/25 13:58:02;;;;;;;2.50;0.60;;;;;;;;;;5053590;28;20047;-70
2021/05/25 14:00:36;;;;;;;0.65;0.40;;;;;;;;;;5051891;28;20100;-72
2021/05/25 14:03:02;;;;;;;0.85;0.45;;;;;;;;;;5058279;28;20108;-71
2021/05/25 14:05:27;;;;;;;1.67;0.50;;;;;;;;;;5054440;28;20104;-71
2021/05/25 14:07:54;;;;;;;7.03;1.00;;;;;;;;;;5052486;28;20036;-72
2021/05/25 14:10:19;;;;;;;2.47;1.05;;;;;;;;;;5052173;28;20468;-72
2021/05/25 14:12:44;;;;;;;1.33;0.70;;;;;;;;;;5053812;28;20020;-72
2021/05/25 14:15:09;;;;;;;1.50;0.60;;;;;;;;;;5047447;28;20029;-72
2021/05/25 14:17:34;;;;;;;3.30;0.70;;;;;;;;;;5061172;28;20023;-72
2021/05/25 14:20:00;;;;;;;2.97;0.70;;;;;;;;;;5051816;28;20017;-72
2021/05/25 14:22:25;;;;;;;2.10;0.55;;;;;;;;;;5063957;28;20128;-71
2021/05/25 14:24:52;;;;;;;2.47;0.70;;;;;;;;;;5056402;28;20029;-72
2021/05/25 14:27:17;;;;;;;1.55;0.68;;;;;;;;;;5051514;28;20547;-72
2021/05/25 14:29:42;;;;;;;1.25;0.63;;;;;;;;;;5051710;28;20104;-71
2021/05/25 14:32:07;;;;;;;6.65;0.77;;;;;;;;;;5065117;28;20013;-71
2021/05/25 14:34:32;;;;;;;2.05;0.70;;;;;;;;;;5063066;28;20025;-71
2021/05/25 14:36:57;;;;;;;2.40;0.70;;;;;;;;;;5063980;28;20030;-71
2021/05/25 14:39:23;;;;;;;2.17;0.75;;;;;;;;;;5053028;28;20283;-71
2021/05/25 14:41:48;;;;;;;2.50;0.80;;;;;;;;;;5050506;28;20095;-71
2021/05/25 14:44:13;;;;;;;3.80;0.75;;;;;;;;;;5055193;28;20042;-68